Time;durP1;ratioP1;P1;durP2;ratioP2;P2;SDS_P1;SDS_P2;PMS_P1;PMS_P2;Temp;Humidity;BMP_temperature;BMP_pressure;BME280_temperature;BME280_humidity;BME280_pressure;Samples;Min_cycle;Max_cycle;Signal;HPM_P1;HPM_P2
2022/09/20 00:00:50;;;;;;;15.40;2.60;;;10.50;99.90;;;;;;5023575;28;20045;-75
2022/09/20 00:03:17;;;;;;;8.65;1.80;;;10.50;99.90;;;;;;5023904;28;20042;-76
2022/09/20 00:05:44;;;;;;;12.05;1.02;;;10.60;99.90;;;;;;5026475;28;20107;-76
2022/09/20 00:08:15;;;;;;;16.33;2.28;;;10.50;99.90;;;;;;5025193;28;20056;-76
2022/09/20 00:10:41;;;;;;;;;;;10.50;99.90;;;;;;5027065;28;20079;-76
2022/09/20 00:13:09;;;;;;;10.38;1.85;;;10.40;99.90;;;;;;5025350;28;19921;-76
2022/09/20 00:15:40;;;;;;;12.73;1.75;;;10.40;99.90;;;;;;5024755;28;20046;-76
2022/09/20 00:18:05;;;;;;;16.70;1.95;;;10.60;99.90;;;;;;5025667;28;20050;-76
2022/09/20 00:20:31;;;;;;;8.45;1.80;;;10.50;99.90;;;;;;5023903;28;20040;-77
2022/09/20 00:22:57;;;;;;;7.47;2.35;;;10.40;99.90;;;;;;5024473;28;20439;-75
2022/09/20 00:25:22;;;;;;;10.57;1.50;;;10.50;99.90;;;;;;5023716;28;20041;-76
2022/09/20 00:27:48;;;;;;;10.07;2.03;;;10.50;99.90;;;;;;5025202;28;20038;-76
2022/09/20 00:30:13;;;;;;;12.60;3.20;;;10.30;99.90;;;;;;5023107;28;20076;-75
2022/09/20 00:32:40;;;;;;;9.77;1.73;;;10.40;99.90;;;;;;5021255;28;20077;-76
2022/09/20 00:35:07;;;;;;;11.15;2.60;;;10.30;99.90;;;;;;5021590;28;20061;-76
2022/09/20 00:37:42;;;;;;;11.95;3.33;;;10.30;99.90;;;;;;5025096;28;20045;-76
2022/09/20 00:40:14;;;;;;;6.03;1.80;;;10.40;99.90;;;;;;5023387;28;20038;-74
2022/09/20 00:42:40;;;;;;;9.95;1.83;;;10.40;99.90;;;;;;5023426;28;20041;-75
2022/09/20 00:45:27;;;;;;;8.32;1.95;;;10.20;99.90;;;;;;5023017;28;20817;-76
2022/09/20 00:48:04;;;;;;;8.88;2.25;;;10.30;99.90;;;;;;5013465;28;20039;-76
2022/09/20 00:50:40;;;;;;;3.15;1.33;;;10.10;99.90;;;;;;5026136;28;20065;-76
2022/09/20 00:53:15;;;;;;;3.60;1.50;;;10.10;99.90;;;;;;5024257;28;20091;-76
2022/09/20 00:55:48;;;;;;;8.90;1.50;;;10.00;99.90;;;;;;5026154;28;20046;-75
2022/09/20 00:58:15;;;;;;;9.15;1.75;;;10.10;99.90;;;;;;5023537;28;20041;-76
2022/09/20 01:00:43;;;;;;;10.30;2.05;;;9.90;99.90;;;;;;5024256;28;20051;-76
2022/09/20 01:03:11;;;;;;;2.65;0.90;;;10.10;99.90;;;;;;5022728;28;20044;-76
2022/09/20 01:05:38;;;;;;;7.78;2.33;;;10.00;99.90;;;;;;5024961;28;20049;-76
2022/09/20 01:08:04;;;;;;;8.95;1.33;;;9.90;99.90;;;;;;5023971;28;20042;-76
2022/09/20 01:10:31;;;;;;;11.35;1.55;;;10.00;99.90;;;;;;5026978;28;20080;-76
2022/09/20 01:12:57;;;;;;;9.30;1.48;;;10.10;99.90;;;;;;5024363;28;20034;-75
2022/09/20 01:15:26;;;;;;;10.65;2.17;;;9.90;99.90;;;;;;5023656;28;20057;-76
2022/09/20 01:17:54;;;;;;;6.68;1.45;;;10.00;99.90;;;;;;5023830;28;20439;-77
2022/09/20 01:20:28;;;;;;;10.25;2.33;;;10.00;99.90;;;;;;5025488;28;20056;-75
2022/09/20 01:23:35;;;;;;;5.68;1.13;;;9.70;99.90;;;;;;5022517;28;20037;-76
2022/09/20 01:26:38;;;;;;;10.57;1.80;;;10.00;99.90;;;;;;5024434;28;20143;-76
2022/09/20 01:29:31;;;;;;;5.35;1.77;;;10.00;99.90;;;;;;5024690;28;20045;-76
2022/09/20 01:32:01;;;;;;;5.68;1.10;;;9.70;99.90;;;;;;5021204;28;20056;-75
2022/09/20 01:34:34;;;;;;;18.23;2.28;;;9.60;99.90;;;;;;5023614;28;20038;-75
2022/09/20 01:37:24;;;;;;;6.22;1.10;;;9.70;99.90;;;;;;5023565;28;20092;-76
2022/09/20 01:40:18;;;;;;;3.67;1.33;;;9.60;99.90;;;;;;5023784;28;20496;-76
2022/09/20 01:43:10;;;;;;;7.68;1.90;;;9.80;99.90;;;;;;5024097;28;20053;-75
2022/09/20 01:45:43;;;;;;;6.80;1.58;;;9.80;99.90;;;;;;5014586;28;20123;-75
2022/09/20 01:48:12;;;;;;;8.98;1.40;;;9.80;99.90;;;;;;5021291;28;20439;-75
2022/09/20 01:50:58;;;;;;;14.07;2.65;;;9.80;99.90;;;;;;5025524;28;20066;-76
2022/09/20 01:53:52;;;;;;;7.68;1.58;;;9.70;99.90;;;;;;5026826;22;20251;-75
2022/09/20 01:56:52;;;;;;;6.82;1.08;;;9.70;99.90;;;;;;4996197;28;20100;-76
2022/09/20 01:59:21;;;;;;;14.63;1.92;;;10.00;99.90;;;;;;5002910;28;20050;-75
2022/09/20 02:01:52;;;;;;;7.93;1.90;;;10.00;99.90;;;;;;5006162;28;20049;-76
2022/09/20 02:04:23;;;;;;;14.10;1.02;;;10.10;99.90;;;;;;5000323;28;20139;-76
2022/09/20 02:07:06;;;;;;;8.68;1.13;;;10.20;99.90;;;;;;5015542;28;20099;-76
2022/09/20 02:10:06;;;;;;;12.00;1.95;;;10.40;99.90;;;;;;5009694;28;20057;-77
2022/09/20 02:12:55;;;;;;;9.85;2.03;;;10.50;99.90;;;;;;5005102;28;20046;-76
2022/09/20 02:15:42;;;;;;;11.80;2.10;;;10.40;99.90;;;;;;5003421;28;20396;-76
2022/09/20 02:18:39;;;;;;;11.73;1.58;;;10.40;99.90;;;;;;5008342;28;20459;-76
2022/09/20 02:21:14;;;;;;;6.60;1.60;;;10.50;99.90;;;;;;5004044;28;20068;-76
2022/09/20 02:23:50;;;;;;;4.97;1.23;;;10.60;99.90;;;;;;5005266;28;20447;-75
2022/09/20 02:26:43;;;;;;;5.80;0.90;;;10.80;99.90;;;;;;5004058;28;20057;-75
2022/09/20 02:29:17;;;;;;;4.22;1.17;;;10.70;99.90;;;;;;5011595;28;20057;-76
2022/09/20 02:32:08;;;;;;;6.85;1.40;;;10.80;99.90;;;;;;5003219;28;20117;-75
2022/09/20 02:34:55;;;;;;;5.10;0.80;;;10.70;99.90;;;;;;5003675;28;20121;-75
2022/09/20 02:37:43;;;;;;;7.38;1.58;;;10.90;99.90;;;;;;5006373;28;20494;-75
2022/09/20 02:40:11;;;;;;;9.85;1.08;;;10.80;99.90;;;;;;5010962;28;20049;-75
2022/09/20 02:42:46;;;;;;;10.07;0.80;;;10.90;99.90;;;;;;5006237;28;20042;-76
2022/09/20 02:45:26;;;;;;;2.72;0.80;;;10.90;99.90;;;;;;5004170;28;20041;-76
2022/09/20 02:47:55;;;;;;;4.93;1.20;;;10.80;99.90;;;;;;5001398;28;20488;-75
2022/09/20 02:50:44;;;;;;;7.47;1.45;;;11.10;99.90;;;;;;5002920;28;20124;-76
2022/09/20 02:53:38;;;;;;;5.05;1.23;;;11.00;99.90;;;;;;5006113;28;20050;-76
2022/09/20 02:56:27;;;;;;;5.65;0.77;;;11.20;99.90;;;;;;5010827;28;20081;-77
2022/09/20 02:59:28;;;;;;;9.45;2.30;;;11.10;99.90;;;;;;4993403;28;20053;-76
2022/09/20 03:02:09;;;;;;;7.13;1.13;;;11.10;99.90;;;;;;4980100;28;20060;-76
2022/09/20 03:04:41;;;;;;;5.47;1.60;;;11.20;99.90;;;;;;5004652;28;20041;-76
2022/09/20 03:07:39;;;;;;;8.98;1.77;;;11.00;99.90;;;;;;5010412;28;20049;-75
2022/09/20 03:10:17;;;;;;;4.43;0.93;;;11.20;99.90;;;;;;5013128;28;20124;-75
2022/09/20 03:13:09;;;;;;;2.50;0.75;;;11.20;99.90;;;;;;5013778;28;20069;-77
2022/09/20 03:16:00;;;;;;;3.88;1.00;;;11.00;99.90;;;;;;5010590;28;20119;-76
2022/09/20 03:18:33;;;;;;;5.30;1.20;;;11.00;99.90;;;;;;5007956;28;20042;-76
2022/09/20 03:21:21;;;;;;;6.63;1.02;;;11.10;99.90;;;;;;5004725;28;20046;-75
2022/09/20 03:24:07;;;;;;;4.35;0.40;;;11.10;99.90;;;;;;5016358;28;20087;-76
2022/09/20 03:27:16;;;;;;;5.55;0.70;;;11.20;99.90;;;;;;5005395;28;20045;-76
2022/09/20 03:30:14;;;;;;;9.10;2.10;;;11.00;99.90;;;;;;4990588;28;20133;-77
2022/09/20 03:32:56;;;;;;;3.63;1.23;;;11.00;99.90;;;;;;5002482;28;20038;-77
2022/09/20 03:35:41;;;;;;;4.57;0.93;;;11.10;99.90;;;;;;5001417;28;20049;-75
2022/09/20 03:38:44;;;;;;;5.13;1.08;;;11.20;99.90;;;;;;5008904;28;20547;-76
2022/09/20 03:41:41;;;;;;;7.28;1.85;;;11.00;99.90;;;;;;5003132;28;20516;-75
2022/09/20 03:44:26;;;;;;;5.00;1.85;;;11.00;99.90;;;;;;5003562;28;20076;-76
2022/09/20 03:47:18;;;;;;;5.45;0.65;;;11.00;99.90;;;;;;5004223;28;20030;-76
2022/09/20 03:50:11;;;;;;;6.25;1.45;;;11.20;99.90;;;;;;5016103;28;20048;-75
2022/09/20 03:52:54;;;;;;;3.90;1.17;;;11.00;99.90;;;;;;4994699;28;20528;-75
2022/09/20 03:56:06;;;;;;;4.80;0.63;;;11.00;99.90;;;;;;4999187;28;20225;-76
2022/09/20 03:58:51;;;;;;;11.13;1.88;;;11.20;99.90;;;;;;4927016;29;20048;-76
2022/09/20 04:01:31;;;;;;;8.30;1.55;;;10.90;99.90;;;;;;4998783;28;20086;-75
2022/09/20 04:04:07;;;;;;;;;;;11.10;99.90;;;;;;5009461;28;20137;-75
2022/09/20 04:06:51;;;;;;;7.00;1.13;;;11.00;99.90;;;;;;5006907;28;20008;-76
2022/09/20 04:09:44;;;;;;;4.25;0.50;;;11.10;99.90;;;;;;5008111;28;20037;-76
2022/09/20 04:12:46;;;;;;;11.07;1.92;;;11.10;99.90;;;;;;5005699;28;20075;-74
2022/09/20 04:15:11;;;;;;;7.38;0.65;;;11.10;99.90;;;;;;5003789;28;20045;-74
2022/09/20 04:18:11;;;;;;;5.15;0.93;;;10.90;99.90;;;;;;5012244;28;20419;-76
2022/09/20 04:20:45;;;;;;;8.32;1.30;;;11.20;99.90;;;;;;5000550;28;20118;-76
2022/09/20 04:23:41;;;;;;;4.28;0.80;;;11.00;99.90;;;;;;5003639;28;20065;-76
2022/09/20 04:26:07;;;;;;;5.60;0.98;;;11.20;99.90;;;;;;5020619;28;20046;-75
2022/09/20 04:28:46;;;;;;;5.30;1.00;;;11.00;99.90;;;;;;5007725;28;20140;-76
2022/09/20 04:31:36;;;;;;;3.78;0.80;;;11.10;99.90;;;;;;5003634;28;20576;-75
2022/09/20 04:34:09;;;;;;;6.18;1.20;;;11.10;99.90;;;;;;5011746;28;20044;-75
2022/09/20 04:36:57;;;;;;;7.80;2.95;;;11.00;99.90;;;;;;5007550;28;20392;-75
2022/09/20 04:39:46;;;;;;;5.93;1.50;;;11.10;99.90;;;;;;5003573;28;20044;-76
2022/09/20 04:42:45;;;;;;;3.92;0.68;;;10.90;99.90;;;;;;5010850;28;20100;-74
2022/09/20 04:45:29;;;;;;;3.88;0.45;;;11.20;99.90;;;;;;5010681;28;20036;-75
2022/09/20 04:48:12;;;;;;;8.38;2.25;;;11.00;99.90;;;;;;5019404;28;20041;-76
2022/09/20 04:51:05;;;;;;;2.60;0.52;;;11.10;99.90;;;;;;5005859;28;20120;-76
2022/09/20 04:53:45;;;;;;;2.88;0.70;;;11.00;99.90;;;;;;5010257;28;20242;-75
2022/09/20 04:56:35;;;;;;;5.10;0.80;;;10.90;99.90;;;;;;5012309;28;20072;-76
2022/09/20 04:59:24;;;;;;;9.57;1.58;;;10.80;99.90;;;;;;5007629;28;20049;-74
2022/09/20 05:02:29;;;;;;;3.70;0.57;;;11.10;99.90;;;;;;5019568;28;20555;-74
2022/09/20 05:05:13;;;;;;;4.20;0.50;;;11.10;99.90;;;;;;5015356;28;20403;-75
2022/09/20 05:08:03;;;;;;;6.53;0.70;;;11.00;99.90;;;;;;5013600;28;20042;-74
2022/09/20 05:10:50;;;;;;;8.85;1.50;;;11.00;99.90;;;;;;5000196;28;20458;-76
2022/09/20 05:13:40;;;;;;;4.32;1.33;;;11.00;99.90;;;;;;4993339;28;20046;-75
2022/09/20 05:16:25;;;;;;;;;;;11.10;99.90;;;;;;5002289;28;20496;-75
2022/09/20 05:19:06;;;;;;;6.55;1.17;;;10.90;99.90;;;;;;5007935;28;20052;-75
2022/09/20 05:21:40;;;;;;;7.05;1.00;;;11.00;99.90;;;;;;4999662;28;20050;-76
2022/09/20 05:24:17;;;;;;;4.78;1.50;;;11.00;99.90;;;;;;5011144;28;20366;-76
2022/09/20 05:26:55;;;;;;;6.63;0.85;;;10.90;99.90;;;;;;5014372;28;20037;-75
2022/09/20 05:29:46;;;;;;;3.25;1.25;;;10.80;99.90;;;;;;5003268;28;20116;-76
2022/09/20 05:32:23;;;;;;;38.00;2.28;;;10.90;99.90;;;;;;5006119;28;20046;-76
2022/09/20 05:35:05;;;;;;;5.47;1.20;;;11.10;99.90;;;;;;5015661;28;20064;-76
2022/09/20 05:37:51;;;;;;;6.82;1.05;;;11.00;99.90;;;;;;5007881;28;20125;-75
2022/09/20 05:40:17;;;;;;;5.40;1.35;;;10.90;99.90;;;;;;5006942;28;20049;-75
2022/09/20 05:43:10;;;;;;;7.30;1.30;;;10.90;99.90;;;;;;5014013;28;20443;-76
2022/09/20 05:46:02;;;;;;;8.35;1.08;;;10.70;99.90;;;;;;5001170;28;20108;-76
2022/09/20 05:48:52;;;;;;;7.70;1.98;;;10.80;99.90;;;;;;5018382;28;20045;-76
2022/09/20 05:51:39;;;;;;;4.45;1.20;;;10.80;99.90;;;;;;5011925;28;20459;-76
2022/09/20 05:54:53;;;;;;;6.30;1.38;;;10.70;99.90;;;;;;5003333;28;20054;-75
2022/09/20 05:57:41;;;;;;;8.02;1.42;;;10.70;99.90;;;;;;4943840;28;20054;-76
2022/09/20 06:00:14;;;;;;;14.10;1.63;;;10.60;99.90;;;;;;5014755;28;20511;-75
2022/09/20 06:02:58;;;;;;;18.00;2.78;;;10.60;99.90;;;;;;5014893;28;20551;-75
2022/09/20 06:05:24;;;;;;;5.28;1.45;;;10.60;99.90;;;;;;5016583;28;20443;-77
2022/09/20 06:08:02;;;;;;;6.60;1.95;;;10.70;99.90;;;;;;5010535;28;20064;-76
2022/09/20 06:10:55;;;;;;;9.77;1.95;;;10.80;99.90;;;;;;5019249;28;20504;-76
2022/09/20 06:13:51;;;;;;;5.20;1.73;;;10.60;99.90;;;;;;5005987;28;20492;-77
2022/09/20 06:16:32;;;;;;;6.28;1.88;;;10.60;99.90;;;;;;5012487;28;20046;-78
2022/09/20 06:19:18;;;;;;;13.25;2.47;;;10.50;99.90;;;;;;5016833;28;20054;-77
2022/09/20 06:21:53;;;;;;;3.95;1.00;;;10.50;99.90;;;;;;5002881;28;20050;-78
2022/09/20 06:24:38;;;;;;;4.15;1.42;;;10.80;99.90;;;;;;5018270;28;20041;-78
2022/09/20 06:27:20;;;;;;;6.63;1.00;;;10.60;99.90;;;;;;5005231;28;20129;-77
2022/09/20 06:29:58;;;;;;;9.02;1.48;;;10.70;99.90;;;;;;5014023;28;20033;-76
2022/09/20 06:32:24;;;;;;;10.93;1.88;;;10.50;99.90;;;;;;5012139;28;20046;-76
2022/09/20 06:34:51;;;;;;;7.93;1.17;;;10.80;99.90;;;;;;5007430;28;20110;-77
2022/09/20 06:43:20;;;;;;;10.98;2.25;;;10.70;99.90;;;;;;5010015;28;20042;-77
2022/09/20 06:45:47;;;;;;;6.90;1.95;;;10.80;99.90;;;;;;5003150;28;20049;-76
2022/09/20 06:48:14;;;;;;;10.55;2.55;;;11.20;99.90;;;;;;5002785;28;20393;-78
2022/09/20 06:50:44;;;;;;;8.13;0.95;;;11.30;99.90;;;;;;5014774;28;20451;-79
2022/09/20 06:53:16;;;;;;;7.35;1.13;;;11.20;99.90;;;;;;5004383;28;20052;-77
2022/09/20 06:55:43;;;;;;;5.53;1.50;;;11.30;99.90;;;;;;5002941;28;20750;-80
2022/09/20 06:58:10;;;;;;;7.85;1.65;;;11.60;99.90;;;;;;5005554;28;20842;-78
2022/09/20 07:00:36;;;;;;;5.47;1.10;;;11.60;99.90;;;;;;5022158;28;20120;-80
2022/09/20 07:03:01;;;;;;;6.78;1.92;;;11.70;99.90;;;;;;5011106;28;20080;-78
2022/09/20 07:05:28;;;;;;;10.95;1.70;;;12.10;99.90;;;;;;5003067;28;20441;-79
2022/09/20 07:07:58;;;;;;;8.48;2.13;;;12.30;99.90;;;;;;5002847;28;20507;-78
2022/09/20 07:10:26;;;;;;;10.27;2.05;;;12.40;99.90;;;;;;5021737;28;20046;-78
2022/09/20 07:12:58;;;;;;;6.45;1.60;;;12.70;99.90;;;;;;5018234;28;20128;-77
2022/09/20 07:15:24;;;;;;;10.80;1.50;;;12.90;99.90;;;;;;5000591;28;20073;-78
2022/09/20 07:17:50;;;;;;;9.95;1.98;;;13.00;99.90;;;;;;5004942;28;20054;-78
2022/09/20 07:20:16;;;;;;;9.25;1.48;;;12.90;99.90;;;;;;5002806;28;20766;-77
2022/09/20 07:22:42;;;;;;;7.13;1.30;;;12.80;99.90;;;;;;5009352;28;20123;-77
2022/09/20 07:25:08;;;;;;;8.77;2.47;;;12.80;99.90;;;;;;5007817;28;20038;-78
2022/09/20 07:27:33;;;;;;;7.88;0.73;;;13.00;99.90;;;;;;5008993;28;20042;-77
2022/09/20 07:30:01;;;;;;;13.50;1.65;;;13.00;99.90;;;;;;5015229;28;20728;-78
2022/09/20 07:32:26;;;;;;;8.93;1.60;;;13.00;99.90;;;;;;5020529;28;20041;-77
2022/09/20 07:34:52;;;;;;;18.30;3.13;;;12.90;99.90;;;;;;5012501;28;20038;-78
2022/09/20 07:37:21;;;;;;;13.48;2.13;;;13.10;99.90;;;;;;5017103;28;20171;-78
2022/09/20 07:39:46;;;;;;;5.88;1.45;;;13.40;99.90;;;;;;5018915;28;20435;-79
2022/09/20 07:42:12;;;;;;;5.20;1.85;;;13.20;99.90;;;;;;5028037;28;20045;-79
2022/09/20 07:44:42;;;;;;;5.45;0.70;;;13.40;99.90;;;;;;5012207;28;20045;-79
2022/09/20 07:47:09;;;;;;;6.13;1.17;;;13.70;99.90;;;;;;5013279;28;20491;-77
2022/09/20 07:49:35;;;;;;;7.30;1.00;;;13.90;99.90;;;;;;5000699;28;20383;-74
2022/09/20 07:52:02;;;;;;;4.10;0.95;;;14.00;99.90;;;;;;5004617;28;20045;-74
2022/09/20 07:54:27;;;;;;;18.55;1.80;;;13.90;99.90;;;;;;5007625;28;20042;-73
2022/09/20 07:56:53;;;;;;;5.25;1.10;;;13.90;99.90;;;;;;5000413;28;20453;-73
2022/09/20 07:59:19;;;;;;;3.30;0.75;;;13.90;99.90;;;;;;5004760;28;20118;-74
2022/09/20 08:01:46;;;;;;;8.98;0.75;;;14.10;99.90;;;;;;5008926;28;20050;-74
2022/09/20 08:04:13;;;;;;;2.13;0.60;;;14.10;99.90;;;;;;5008050;28;20046;-75
2022/09/20 08:06:41;;;;;;;6.40;1.23;;;14.20;99.90;;;;;;5008375;28;20077;-75
2022/09/20 08:09:08;;;;;;;5.15;0.70;;;14.20;99.90;;;;;;5008353;28;20073;-74
2022/09/20 08:11:35;;;;;;;6.70;1.70;;;14.20;99.90;;;;;;4994135;28;20068;-74
2022/09/20 08:14:01;;;;;;;8.32;1.25;;;14.30;99.90;;;;;;4988503;28;20162;-74
2022/09/20 08:16:28;;;;;;;17.60;1.50;;;14.30;99.90;;;;;;4990352;28;20053;-75
2022/09/20 08:18:56;;;;;;;8.77;0.90;;;14.40;99.90;;;;;;5005447;28;20081;-74
2022/09/20 08:21:23;;;;;;;3.40;0.63;;;14.40;99.90;;;;;;5006605;28;20061;-74
2022/09/20 08:23:49;;;;;;;10.00;1.40;;;14.50;99.90;;;;;;5007499;28;20126;-74
2022/09/20 08:26:18;;;;;;;6.28;0.70;;;14.50;99.90;;;;;;5006481;28;20157;-75
2022/09/20 08:28:44;;;;;;;3.67;1.23;;;14.50;99.90;;;;;;5008925;28;20041;-75
2022/09/20 08:31:15;;;;;;;6.78;0.90;;;14.50;99.90;;;;;;5007290;28;20045;-75
2022/09/20 08:33:42;;;;;;;3.47;0.55;;;14.60;99.90;;;;;;5008275;28;20084;-75
2022/09/20 08:36:12;;;;;;;6.22;1.75;;;14.70;99.90;;;;;;5005083;28;20389;-76
2022/09/20 08:38:37;;;;;;;9.18;1.00;;;14.50;99.90;;;;;;5008950;28;20037;-77
2022/09/20 08:41:11;;;;;;;6.15;0.77;;;14.30;99.90;;;;;;5009751;28;20046;-77
2022/09/20 08:43:50;;;;;;;8.07;0.98;;;14.60;99.90;;;;;;5007937;28;20396;-78
2022/09/20 08:46:19;;;;;;;5.93;0.90;;;15.00;99.90;;;;;;4997960;28;20062;-77
2022/09/20 08:48:45;;;;;;;5.75;1.13;;;15.00;99.90;;;;;;4999571;28;20176;-77
2022/09/20 08:51:17;;;;;;;9.13;1.92;;;14.70;99.90;;;;;;5006646;28;20045;-77
2022/09/20 08:53:50;;;;;;;12.70;1.27;;;14.50;99.90;;;;;;5006505;28;20239;-78
2022/09/20 08:56:16;;;;;;;6.47;0.93;;;14.10;99.90;;;;;;5006423;28;20045;-79
2022/09/20 08:58:44;;;;;;;4.30;0.95;;;14.30;99.90;;;;;;5007629;28;20516;-78
2022/09/20 09:01:19;;;;;;;6.90;2.25;;;14.20;99.90;;;;;;4999785;28;20050;-78
2022/09/20 09:03:46;;;;;;;5.90;1.23;;;14.20;99.90;;;;;;5005364;28;20053;-80
2022/09/20 09:06:14;;;;;;;3.28;0.77;;;14.20;99.90;;;;;;5008698;28;20052;-79
2022/09/20 09:08:43;;;;;;;5.85;1.23;;;14.30;99.90;;;;;;5005877;28;20121;-79
2022/09/20 09:11:14;;;;;;;1.75;0.47;;;14.30;99.90;;;;;;5004238;28;20034;-78
2022/09/20 09:14:03;;;;;;;6.38;1.60;;;14.60;99.90;;;;;;5022309;28;20057;-76
2022/09/20 09:16:32;;;;;;;5.68;0.55;;;14.80;99.90;;;;;;5006663;28;20692;-78
2022/09/20 09:19:18;;;;;;;1.52;0.50;;;15.00;99.90;;;;;;5004873;28;20050;-78
2022/09/20 09:21:43;;;;;;;7.20;0.88;;;15.00;99.90;;;;;;5005406;28;20034;-78
2022/09/20 09:24:19;;;;;;;3.00;0.85;;;14.90;99.90;;;;;;5002928;28;20049;-78
2022/09/20 09:26:45;;;;;;;13.25;1.85;;;14.80;99.90;;;;;;5002044;28;20038;-78
2022/09/20 09:29:18;;;;;;;8.07;1.35;;;14.80;99.90;;;;;;5003783;28;20712;-78
2022/09/20 09:31:49;;;;;;;5.07;0.55;;;14.80;99.90;;;;;;5006504;28;20092;-78
2022/09/20 09:34:37;;;;;;;4.50;1.00;;;14.80;99.90;;;;;;5006297;28;20093;-77
2022/09/20 09:37:03;;;;;;;4.05;0.40;;;14.80;99.90;;;;;;4986859;28;20073;-76
2022/09/20 09:39:37;;;;;;;5.18;0.60;;;14.90;99.90;;;;;;5000382;28;20084;-80
2022/09/20 09:42:24;;;;;;;4.65;1.20;;;14.90;99.90;;;;;;5005126;28;20041;-77
2022/09/20 09:44:50;;;;;;;4.90;0.43;;;14.80;99.90;;;;;;5004184;28;20146;-77
2022/09/20 09:47:27;;;;;;;5.43;1.15;;;14.80;99.90;;;;;;5004979;28;20125;-77
2022/09/20 09:49:59;;;;;;;2.00;0.63;;;14.80;99.90;;;;;;5005338;28;20050;-76
2022/09/20 09:52:26;;;;;;;4.65;0.98;;;14.90;99.90;;;;;;5004321;28;20137;-77
2022/09/20 09:54:58;;;;;;;3.17;0.70;;;14.90;99.90;;;;;;5006586;28;20054;-77
2022/09/20 09:57:24;;;;;;;4.63;0.95;;;15.00;99.90;;;;;;5004752;28;20054;-76
2022/09/20 10:00:12;;;;;;;4.47;0.77;;;15.10;99.90;;;;;;4987194;28;20104;-74
2022/09/20 10:03:10;;;;;;;10.20;1.13;;;15.20;99.90;;;;;;4994922;28;20046;-76
2022/09/20 10:05:59;;;;;;;3.10;0.85;;;15.50;99.90;;;;;;5005391;28;20050;-77
2022/09/20 10:08:43;;;;;;;4.78;1.05;;;15.50;99.90;;;;;;4997333;28;20093;-76
2022/09/20 10:11:46;;;;;;;3.00;0.63;;;15.10;99.90;;;;;;5005385;28;20038;-77
2022/09/20 10:14:33;;;;;;;3.20;0.45;;;14.70;99.90;;;;;;4973936;28;20069;-76
2022/09/20 10:17:05;;;;;;;9.02;1.75;;;14.70;99.90;;;;;;4999929;28;20519;-76
2022/09/20 10:19:41;;;;;;;5.90;0.80;;;14.60;99.90;;;;;;5004084;28;20053;-76
2022/09/20 10:22:32;;;;;;;5.60;0.70;;;14.70;99.90;;;;;;5003950;28;20136;-77
2022/09/20 10:25:09;;;;;;;4.95;0.60;;;14.60;99.90;;;;;;5004077;28;20056;-77
2022/09/20 10:27:48;;;;;;;8.80;2.05;;;14.70;99.90;;;;;;5004039;28;20060;-76
2022/09/20 10:30:24;;;;;;;3.53;0.52;;;14.80;99.90;;;;;;5003548;28;20042;-76
2022/09/20 10:33:17;;;;;;;7.43;1.40;;;14.90;99.90;;;;;;5003935;28;20044;-76
2022/09/20 10:35:54;;;;;;;3.78;0.38;;;15.20;99.90;;;;;;4993191;28;20048;-77
2022/09/20 10:38:51;;;;;;;16.75;3.22;;;15.40;99.90;;;;;;5005188;28;20046;-78
2022/09/20 10:44:44;;;;;;;2.50;0.82;;;15.20;99.90;;;;;;5004875;28;20057;-77
2022/09/20 10:47:20;;;;;;;3.50;0.68;;;15.00;99.90;;;;;;5004234;28;20488;-76
2022/09/20 10:50:19;;;;;;;5.50;1.10;;;14.90;99.90;;;;;;5004713;28;20180;-77
2022/09/20 10:53:08;;;;;;;5.57;0.68;;;14.90;99.90;;;;;;5003427;28;20172;-77
2022/09/20 10:55:38;;;;;;;7.40;1.60;;;14.90;99.90;;;;;;5002410;28;20046;-79
2022/09/20 10:58:31;;;;;;;5.30;0.55;;;14.90;99.90;;;;;;4998755;28;20436;-73
2022/09/20 11:01:06;;;;;;;6.80;0.93;;;15.00;99.90;;;;;;5002437;28;20229;-76
2022/09/20 11:04:15;;;;;;;5.00;1.17;;;14.90;99.90;;;;;;5003499;28;20044;-75
2022/09/20 11:06:42;;;;;;;4.90;0.95;;;14.90;99.90;;;;;;4990816;28;20049;-77
2022/09/20 11:09:12;;;;;;;10.82;1.27;;;14.90;99.90;;;;;;5003332;28;20061;-77
2022/09/20 11:11:49;;;;;;;5.60;1.45;;;15.00;99.90;;;;;;5015523;28;20045;-77
2022/09/20 11:14:33;;;;;;;4.00;0.77;;;15.20;99.90;;;;;;5003705;28;20234;-76
2022/09/20 11:17:25;;;;;;;7.80;0.73;;;15.50;99.90;;;;;;5004598;28;20081;-76
2022/09/20 11:20:14;;;;;;;6.10;1.13;;;15.80;99.90;;;;;;5003616;28;20030;-75
2022/09/20 11:22:46;;;;;;;4.70;0.98;;;15.90;99.90;;;;;;5001668;28;20046;-75
2022/09/20 11:25:22;;;;;;;5.95;1.17;;;16.10;99.90;;;;;;5003413;28;20042;-76
2022/09/20 11:27:56;;;;;;;9.77;1.13;;;16.30;99.90;;;;;;5001778;28;20044;-76
2022/09/20 11:30:23;;;;;;;2.20;0.80;;;16.30;99.90;;;;;;4988805;28;20042;-76
2022/09/20 11:33:00;;;;;;;7.32;0.90;;;15.70;99.90;;;;;;5004345;28;20046;-75
2022/09/20 11:35:41;;;;;;;8.88;2.65;;;15.50;99.90;;;;;;5002092;28;20046;-77
2022/09/20 11:38:32;;;;;;;8.18;1.30;;;15.20;99.90;;;;;;5003959;28;20488;-77
2022/09/20 11:41:04;;;;;;;7.22;1.13;;;15.50;99.90;;;;;;5004947;28;20114;-77
2022/09/20 11:43:31;;;;;;;4.93;1.77;;;15.90;99.90;;;;;;4997095;28;20594;-78
2022/09/20 11:46:11;;;;;;;2.67;1.10;;;16.30;99.90;;;;;;5003843;28;20044;-77
2022/09/20 11:48:50;;;;;;;7.70;0.70;;;16.60;99.90;;;;;;5003732;28;20046;-78
2022/09/20 11:51:27;;;;;;;2.33;0.33;;;16.20;99.90;;;;;;4997933;28;20041;-76
2022/09/20 11:54:24;;;;;;;5.65;0.43;;;15.80;99.90;;;;;;5008871;28;20649;-76
2022/09/20 11:56:52;;;;;;;3.80;1.20;;;15.70;99.90;;;;;;5007324;28;20046;-76
2022/09/20 11:59:27;;;;;;;5.20;0.68;;;15.90;99.90;;;;;;5005573;28;20096;-76
2022/09/20 12:01:55;;;;;;;6.50;0.73;;;16.30;99.90;;;;;;5009972;28;20050;-75
2022/09/20 12:04:26;;;;;;;5.15;0.55;;;16.20;99.90;;;;;;5001651;28;20627;-79
2022/09/20 12:07:12;;;;;;;4.68;1.17;;;16.20;99.90;;;;;;5001506;28;20046;-77
2022/09/20 12:09:41;;;;;;;2.47;0.88;;;16.20;99.90;;;;;;5008455;28;20046;-75
2022/09/20 12:12:40;;;;;;;5.65;0.65;;;15.90;99.90;;;;;;5018347;28;20092;-75
2022/09/20 12:15:24;;;;;;;4.50;0.60;;;15.70;99.90;;;;;;5010901;28;20113;-75
2022/09/20 12:17:51;;;;;;;5.75;0.60;;;15.70;99.90;;;;;;5012955;28;20042;-77
2022/09/20 12:20:33;;;;;;;1.00;0.75;;;16.00;99.90;;;;;;5005199;28;20042;-76
2022/09/20 12:23:39;;;;;;;6.43;0.50;;;16.30;99.90;;;;;;5022557;28;20404;-76
2022/09/20 12:26:21;;;;;;;4.22;0.70;;;16.80;99.90;;;;;;5017176;28;20063;-77
2022/09/20 12:28:49;;;;;;;19.27;1.40;;;16.90;99.90;;;;;;4988101;28;20126;-76
2022/09/20 12:31:18;;;;;;;4.90;0.40;;;16.50;99.90;;;;;;5000458;28;20046;-75
2022/09/20 12:34:14;;;;;;;2.45;0.80;;;16.20;99.90;;;;;;5005136;28;20046;-75
2022/09/20 12:36:45;;;;;;;4.55;0.85;;;15.80;99.90;;;;;;5001808;28;20052;-75
2022/09/20 12:39:11;;;;;;;5.25;0.52;;;15.60;99.90;;;;;;5006014;28;20046;-76
2022/09/20 12:41:59;;;;;;;2.20;0.50;;;15.50;99.90;;;;;;5021550;28;20125;-76
2022/09/20 12:44:42;;;;;;;1.27;0.60;;;15.70;99.90;;;;;;4999116;28;20111;-76
2022/09/20 12:47:11;;;;;;;3.15;0.60;;;15.90;99.90;;;;;;4999251;28;20048;-75
2022/09/20 12:55:25;;;;;;;3.15;0.30;;;16.80;99.90;;;;;;5000736;28;20107;-76
2022/09/20 12:58:07;;;;;;;2.72;0.30;;;16.80;99.90;;;;;;5009727;28;20142;-76
2022/09/20 13:00:48;;;;;;;5.55;0.50;;;16.80;99.90;;;;;;5014134;28;20046;-76
2022/09/20 13:03:25;;;;;;;2.58;0.82;;;16.80;99.90;;;;;;5008253;28;20060;-77
2022/09/20 13:06:07;;;;;;;2.10;0.73;;;16.90;99.90;;;;;;5014545;28;20103;-77
2022/09/20 13:09:04;;;;;;;1.35;0.20;;;17.00;99.90;;;;;;5009557;28;20037;-75
2022/09/20 13:11:38;;;;;;;4.63;0.75;;;16.90;99.90;;;;;;5004657;28;20050;-76
2022/09/20 13:14:15;;;;;;;5.30;1.33;;;16.60;99.90;;;;;;5005691;28;20037;-76
2022/09/20 13:16:55;;;;;;;5.55;0.98;;;16.40;99.90;;;;;;5010577;28;20498;-77
2022/09/20 13:19:33;;;;;;;;;;;16.20;99.90;;;;;;5006218;28;20052;-77
2022/09/20 13:22:23;;;;;;;3.42;0.55;;;16.00;99.90;;;;;;5006053;28;20350;-76
2022/09/20 13:24:55;;;;;;;3.78;0.93;;;15.80;99.90;;;;;;5004225;28;20040;-76
2022/09/20 13:27:33;;;;;;;4.35;0.93;;;15.70;99.90;;;;;;5006957;28;20142;-77
2022/09/20 13:30:20;;;;;;;4.90;1.38;;;15.60;99.90;;;;;;5008793;28;20041;-77
2022/09/20 13:32:48;;;;;;;2.30;0.60;;;15.70;99.90;;;;;;5005874;28;20049;-77
2022/09/20 13:35:17;;;;;;;3.22;0.38;;;16.10;99.90;;;;;;5004329;28;20041;-77
2022/09/20 13:37:54;;;;;;;2.20;1.00;;;16.30;99.90;;;;;;5013034;28;20141;-77
2022/09/20 13:40:22;;;;;;;4.38;0.63;;;16.50;99.90;;;;;;5005582;28;20104;-76
2022/09/20 13:42:50;;;;;;;2.35;0.40;;;16.40;99.90;;;;;;5010048;28;20076;-77
2022/09/20 13:45:18;;;;;;;0.77;0.30;;;16.50;99.90;;;;;;5005710;28;20137;-78
2022/09/20 13:47:49;;;;;;;3.38;0.50;;;16.60;99.90;;;;;;5005700;28;20049;-75
2022/09/20 13:50:30;;;;;;;5.40;0.73;;;16.40;99.90;;;;;;4998002;28;20050;-76
2022/09/20 13:53:01;;;;;;;3.78;0.60;;;16.50;99.90;;;;;;5002748;28;20049;-76
2022/09/20 13:55:36;;;;;;;5.57;1.10;;;16.50;99.90;;;;;;5004724;28;20097;-75
2022/09/20 13:58:16;;;;;;;6.88;0.85;;;16.60;99.90;;;;;;5002612;28;20095;-75